sensor_id;sensor_type;location;lat;lon;timestamp;temperature;humidity
55004;DHT22;40900;52.710;6.438;2023-07-20T00:01:23;16.50;99.90
55004;DHT22;40900;52.710;6.438;2023-07-20T00:03:49;16.50;99.90
55004;DHT22;40900;52.710;6.438;2023-07-20T00:06:21;16.50;99.90
55004;DHT22;40900;52.710;6.438;2023-07-20T00:08:47;16.50;99.90
55004;DHT22;40900;52.710;6.438;2023-07-20T00:11:13;16.60;99.90
55004;DHT22;40900;52.710;6.438;2023-07-20T00:13:39;16.50;99.90
55004;DHT22;40900;52.710;6.438;2023-07-20T00:16:05;16.50;99.90
55004;DHT22;40900;52.710;6.438;2023-07-20T00:18:31;16.50;99.90
55004;DHT22;40900;52.710;6.438;2023-07-20T00:20:56;16.50;99.90
55004;DHT22;40900;52.710;6.438;2023-07-20T00:23:22;16.40;99.90
55004;DHT22;40900;52.710;6.438;2023-07-20T00:25:48;16.50;99.90
55004;DHT22;40900;52.710;6.438;2023-07-20T00:28:14;16.50;99.90
55004;DHT22;40900;52.710;6.438;2023-07-20T00:30:40;16.50;99.90
55004;DHT22;40900;52.710;6.438;2023-07-20T00:33:09;16.50;99.90
55004;DHT22;40900;52.710;6.438;2023-07-20T00:35:35;16.50;99.90
55004;DHT22;40900;52.710;6.438;2023-07-20T00:38:01;16.60;99.90
55004;DHT22;40900;52.710;6.438;2023-07-20T00:40:26;16.50;99.90
55004;DHT22;40900;52.710;6.438;2023-07-20T00:42:52;16.50;99.90
55004;DHT22;40900;52.710;6.438;2023-07-20T00:45:18;16.50;99.90
55004;DHT22;40900;52.710;6.438;2023-07-20T00:47:44;16.50;99.90
55004;DHT22;40900;52.710;6.438;2023-07-20T00:50:10;16.50;99.90
55004;DHT22;40900;52.710;6.438;2023-07-20T00:52:36;16.50;99.90
55004;DHT22;40900;52.710;6.438;2023-07-20T00:55:06;16.50;99.90
55004;DHT22;40900;52.710;6.438;2023-07-20T00:57:32;16.50;99.90
55004;DHT22;40900;52.710;6.438;2023-07-20T00:59:58;16.60;99.90
55004;DHT22;40900;52.710;6.438;2023-07-20T01:02:24;16.50;99.90
55004;DHT22;40900;52.710;6.438;2023-07-20T01:04:50;16.50;99.90
55004;DHT22;40900;52.710;6.438;2023-07-20T01:07:20;16.50;99.90
55004;DHT22;40900;52.710;6.438;2023-07-20T01:12:26;16.40;99.90
55004;DHT22;40900;52.710;6.438;2023-07-20T01:14:53;16.40;99.90
55004;DHT22;40900;52.710;6.438;2023-07-20T01:17:19;16.30;99.90
55004;DHT22;40900;52.710;6.438;2023-07-20T01:19:45;16.40;99.90
55004;DHT22;40900;52.710;6.438;2023-07-20T01:33:42;16.30;99.90
55004;DHT22;40900;52.710;6.438;2023-07-20T01:36:08;16.30;99.90
55004;DHT22;40900;52.710;6.438;2023-07-20T01:38:36;16.20;99.90
55004;DHT22;40900;52.710;6.438;2023-07-20T01:41:02;16.20;99.90
55004;DHT22;40900;52.710;6.438;2023-07-20T01:43:28;16.20;99.90
55004;DHT22;40900;52.710;6.438;2023-07-20T01:45:54;16.20;99.90
55004;DHT22;40900;52.710;6.438;2023-07-20T01:48:20;16.10;99.90
55004;DHT22;40900;52.710;6.438;2023-07-20T01:50:46;16.10;99.90
55004;DHT22;40900;52.710;6.438;2023-07-20T01:53:11;16.10;99.90
55004;DHT22;40900;52.710;6.438;2023-07-20T01:55:37;16.00;99.90
55004;DHT22;40900;52.710;6.438;2023-07-20T01:58:03;15.90;99.90
55004;DHT22;40900;52.710;6.438;2023-07-20T02:00:29;15.80;99.90
55004;DHT22;40900;52.710;6.438;2023-07-20T02:02:55;15.80;99.90
55004;DHT22;40900;52.710;6.438;2023-07-20T02:05:20;15.70;99.90
55004;DHT22;40900;52.710;6.438;2023-07-20T02:07:46;15.70;99.90
55004;DHT22;40900;52.710;6.438;2023-07-20T02:10:12;15.60;99.90
55004;DHT22;40900;52.710;6.438;2023-07-20T02:12:38;15.70;99.90
55004;DHT22;40900;52.710;6.438;2023-07-20T02:15:04;15.60;99.90
55004;DHT22;40900;52.710;6.438;2023-07-20T02:17:29;15.60;99.90
55004;DHT22;40900;52.710;6.438;2023-07-20T02:19:56;15.50;99.90
55004;DHT22;40900;52.710;6.438;2023-07-20T02:22:23;15.50;99.90
55004;DHT22;40900;52.710;6.438;2023-07-20T02:24:49;15.50;99.90
55004;DHT22;40900;52.710;6.438;2023-07-20T02:27:16;15.30;99.90
55004;DHT22;40900;52.710;6.438;2023-07-20T02:29:42;15.40;99.90
55004;DHT22;40900;52.710;6.438;2023-07-20T02:32:08;15.30;99.90
55004;DHT22;40900;52.710;6.438;2023-07-20T02:34:35;15.30;99.90
55004;DHT22;40900;52.710;6.438;2023-07-20T02:37:01;15.30;99.90
55004;DHT22;40900;52.710;6.438;2023-07-20T02:39:27;15.30;99.90
55004;DHT22;40900;52.710;6.438;2023-07-20T02:41:54;15.20;99.90
55004;DHT22;40900;52.710;6.438;2023-07-20T02:44:20;15.20;99.90
55004;DHT22;40900;52.710;6.438;2023-07-20T02:46:46;15.20;99.90
55004;DHT22;40900;52.710;6.438;2023-07-20T02:49:12;15.20;99.90
55004;DHT22;40900;52.710;6.438;2023-07-20T02:51:38;15.10;99.90
55004;DHT22;40900;52.710;6.438;2023-07-20T02:54:03;15.10;99.90
55004;DHT22;40900;52.710;6.438;2023-07-20T02:56:29;15.00;99.90
55004;DHT22;40900;52.710;6.438;2023-07-20T02:58:55;15.00;99.90
55004;DHT22;40900;52.710;6.438;2023-07-20T03:01:21;14.90;99.90
55004;DHT22;40900;52.710;6.438;2023-07-20T03:03:46;14.80;99.90
55004;DHT22;40900;52.710;6.438;2023-07-20T03:06:16;14.70;99.90
55004;DHT22;40900;52.710;6.438;2023-07-20T03:08:42;14.70;99.90
55004;DHT22;40900;52.710;6.438;2023-07-20T03:11:17;14.70;99.90
55004;DHT22;40900;52.710;6.438;2023-07-20T03:13:43;14.70;99.90
55004;DHT22;40900;52.710;6.438;2023-07-20T03:16:10;14.70;99.90
55004;DHT22;40900;52.710;6.438;2023-07-20T03:18:41;14.80;99.90
55004;DHT22;40900;52.710;6.438;2023-07-20T03:21:08;14.70;99.90
55004;DHT22;40900;52.710;6.438;2023-07-20T03:23:34;14.80;99.90
55004;DHT22;40900;52.710;6.438;2023-07-20T03:26:00;14.80;99.90
55004;DHT22;40900;52.710;6.438;2023-07-20T03:28:26;14.80;99.90
55004;DHT22;40900;52.710;6.438;2023-07-20T03:30:58;14.80;99.90
55004;DHT22;40900;52.710;6.438;2023-07-20T03:33:28;14.70;99.90
55004;DHT22;40900;52.710;6.438;2023-07-20T03:35:54;14.70;99.90
55004;DHT22;40900;52.710;6.438;2023-07-20T03:38:21;14.70;99.90
55004;DHT22;40900;52.710;6.438;2023-07-20T03:40:54;14.60;99.90
55004;DHT22;40900;52.710;6.438;2023-07-20T03:43:21;14.60;99.90
55004;DHT22;40900;52.710;6.438;2023-07-20T03:45:47;14.60;99.90
55004;DHT22;40900;52.710;6.438;2023-07-20T03:48:17;14.50;99.90
55004;DHT22;40900;52.710;6.438;2023-07-20T03:50:45;14.50;99.90
55004;DHT22;40900;52.710;6.438;2023-07-20T03:53:15;14.40;99.90
55004;DHT22;40900;52.710;6.438;2023-07-20T03:55:44;14.50;99.90
55004;DHT22;40900;52.710;6.438;2023-07-20T03:58:10;14.40;99.90
55004;DHT22;40900;52.710;6.438;2023-07-20T04:00:35;14.40;99.90
55004;DHT22;40900;52.710;6.438;2023-07-20T04:03:01;14.40;99.90
55004;DHT22;40900;52.710;6.438;2023-07-20T04:05:27;14.40;99.90
55004;DHT22;40900;52.710;6.438;2023-07-20T04:07:52;14.40;99.90
55004;DHT22;40900;52.710;6.438;2023-07-20T04:10:21;14.30;99.90
55004;DHT22;40900;52.710;6.438;2023-07-20T04:12:47;14.30;99.90
55004;DHT22;40900;52.710;6.438;2023-07-20T04:15:13;14.30;99.90
55004;DHT22;40900;52.710;6.438;2023-07-20T04:17:42;14.40;99.90
55004;DHT22;40900;52.710;6.438;2023-07-20T04:20:08;14.40;99.90
55004;DHT22;40900;52.710;6.438;2023-07-20T04:22:34;14.50;99.90
55004;DHT22;40900;52.710;6.438;2023-07-20T04:25:00;14.40;99.90
55004;DHT22;40900;52.710;6.438;2023-07-20T04:27:26;14.50;99.90
55004;DHT22;40900;52.710;6.438;2023-07-20T04:29:52;14.50;99.90
55004;DHT22;40900;52.710;6.438;2023-07-20T04:32:18;14.50;99.90
55004;DHT22;40900;52.710;6.438;2023-07-20T04:34:44;14.50;99.90
55004;DHT22;40900;52.710;6.438;2023-07-20T04:37:09;14.50;99.90
55004;DHT22;40900;52.710;6.438;2023-07-20T04:39:35;14.50;99.90
55004;DHT22;40900;52.710;6.438;2023-07-20T04:42:01;14.40;99.90
55004;DHT22;40900;52.710;6.438;2023-07-20T04:44:26;14.40;99.90
55004;DHT22;40900;52.710;6.438;2023-07-20T04:46:52;14.40;99.90
55004;DHT22;40900;52.710;6.438;2023-07-20T04:49:18;14.40;99.90
55004;DHT22;40900;52.710;6.438;2023-07-20T04:51:44;14.40;99.90
55004;DHT22;40900;52.710;6.438;2023-07-20T04:54:10;14.40;99.90
55004;DHT22;40900;52.710;6.438;2023-07-20T04:56:35;14.40;99.90
55004;DHT22;40900;52.710;6.438;2023-07-20T04:59:01;14.50;99.90
55004;DHT22;40900;52.710;6.438;2023-07-20T05:01:27;14.50;99.90
55004;DHT22;40900;52.710;6.438;2023-07-20T05:03:53;14.50;99.90
55004;DHT22;40900;52.710;6.438;2023-07-20T05:06:19;14.60;99.90
55004;DHT22;40900;52.710;6.438;2023-07-20T05:08:45;14.50;99.90
55004;DHT22;40900;52.710;6.438;2023-07-20T05:11:11;14.60;99.90
55004;DHT22;40900;52.710;6.438;2023-07-20T05:13:37;14.60;99.90
55004;DHT22;40900;52.710;6.438;2023-07-20T05:16:03;14.60;99.90
55004;DHT22;40900;52.710;6.438;2023-07-20T05:18:29;14.70;99.90
55004;DHT22;40900;52.710;6.438;2023-07-20T05:20:54;14.70;99.90
55004;DHT22;40900;52.710;6.438;2023-07-20T05:23:21;14.70;99.90
55004;DHT22;40900;52.710;6.438;2023-07-20T05:25:48;14.70;99.90
55004;DHT22;40900;52.710;6.438;2023-07-20T05:28:19;14.70;99.90
55004;DHT22;40900;52.710;6.438;2023-07-20T05:30:44;14.80;99.90
55004;DHT22;40900;52.710;6.438;2023-07-20T05:33:10;14.80;99.90
55004;DHT22;40900;52.710;6.438;2023-07-20T05:35:36;14.80;99.90
55004;DHT22;40900;52.710;6.438;2023-07-20T05:38:02;14.90;99.90
55004;DHT22;40900;52.710;6.438;2023-07-20T05:40:29;14.90;99.90
55004;DHT22;40900;52.710;6.438;2023-07-20T05:42:55;14.90;99.90
55004;DHT22;40900;52.710;6.438;2023-07-20T05:45:22;15.00;99.90
55004;DHT22;40900;52.710;6.438;2023-07-20T05:47:48;15.00;99.90
55004;DHT22;40900;52.710;6.438;2023-07-20T05:50:14;15.10;99.90
55004;DHT22;40900;52.710;6.438;2023-07-20T05:52:40;15.10;99.90
55004;DHT22;40900;52.710;6.438;2023-07-20T05:55:07;15.10;99.90
55004;DHT22;40900;52.710;6.438;2023-07-20T05:57:33;15.20;99.90
55004;DHT22;40900;52.710;6.438;2023-07-20T05:59:59;15.30;99.90
55004;DHT22;40900;52.710;6.438;2023-07-20T06:02:25;15.40;99.90
55004;DHT22;40900;52.710;6.438;2023-07-20T06:04:50;15.40;99.90
55004;DHT22;40900;52.710;6.438;2023-07-20T06:07:16;15.40;99.90
55004;DHT22;40900;52.710;6.438;2023-07-20T06:09:42;15.50;99.90
55004;DHT22;40900;52.710;6.438;2023-07-20T06:12:08;15.50;99.90
55004;DHT22;40900;52.710;6.438;2023-07-20T06:14:34;15.60;99.90
55004;DHT22;40900;52.710;6.438;2023-07-20T06:17:00;15.60;99.90
55004;DHT22;40900;52.710;6.438;2023-07-20T06:19:26;15.60;99.90
55004;DHT22;40900;52.710;6.438;2023-07-20T06:21:52;15.70;99.90
55004;DHT22;40900;52.710;6.438;2023-07-20T06:24:18;15.70;99.90
55004;DHT22;40900;52.710;6.438;2023-07-20T06:26:44;15.80;99.90
55004;DHT22;40900;52.710;6.438;2023-07-20T06:29:09;15.80;99.90
55004;DHT22;40900;52.710;6.438;2023-07-20T06:31:36;15.90;99.90
55004;DHT22;40900;52.710;6.438;2023-07-20T06:34:02;16.00;99.90
55004;DHT22;40900;52.710;6.438;2023-07-20T06:36:28;16.00;99.90
55004;DHT22;40900;52.710;6.438;2023-07-20T06:38:54;16.10;99.90
55004;DHT22;40900;52.710;6.438;2023-07-20T06:41:20;16.00;99.90
55004;DHT22;40900;52.710;6.438;2023-07-20T06:43:46;16.00;99.90
55004;DHT22;40900;52.710;6.438;2023-07-20T06:46:12;16.10;99.90
55004;DHT22;40900;52.710;6.438;2023-07-20T06:48:38;16.10;99.90
55004;DHT22;40900;52.710;6.438;2023-07-20T06:51:03;16.20;99.90
55004;DHT22;40900;52.710;6.438;2023-07-20T06:53:30;16.20;99.90
55004;DHT22;40900;52.710;6.438;2023-07-20T06:55:56;16.30;99.90
55004;DHT22;40900;52.710;6.438;2023-07-20T06:58:24;16.40;99.90
55004;DHT22;40900;52.710;6.438;2023-07-20T07:00:50;16.40;99.90
55004;DHT22;40900;52.710;6.438;2023-07-20T07:03:16;16.50;99.90
55004;DHT22;40900;52.710;6.438;2023-07-20T07:05:42;16.50;99.90
55004;DHT22;40900;52.710;6.438;2023-07-20T07:08:08;16.50;99.90
55004;DHT22;40900;52.710;6.438;2023-07-20T07:10:35;16.70;99.90
55004;DHT22;40900;52.710;6.438;2023-07-20T07:13:01;16.70;99.90
55004;DHT22;40900;52.710;6.438;2023-07-20T07:15:27;16.70;99.90
55004;DHT22;40900;52.710;6.438;2023-07-20T07:17:54;16.70;99.90
55004;DHT22;40900;52.710;6.438;2023-07-20T07:20:20;16.80;99.90
55004;DHT22;40900;52.710;6.438;2023-07-20T07:22:46;16.80;99.90
55004;DHT22;40900;52.710;6.438;2023-07-20T07:25:12;16.90;99.90
55004;DHT22;40900;52.710;6.438;2023-07-20T07:27:38;17.10;99.90
55004;DHT22;40900;52.710;6.438;2023-07-20T07:30:04;17.20;99.90
55004;DHT22;40900;52.710;6.438;2023-07-20T07:32:31;17.30;99.90
55004;DHT22;40900;52.710;6.438;2023-07-20T07:34:57;17.40;99.90
55004;DHT22;40900;52.710;6.438;2023-07-20T07:37:24;17.50;99.90
55004;DHT22;40900;52.710;6.438;2023-07-20T07:39:50;17.50;99.90
55004;DHT22;40900;52.710;6.438;2023-07-20T07:42:15;17.70;99.90
55004;DHT22;40900;52.710;6.438;2023-07-20T07:44:41;17.80;99.90
55004;DHT22;40900;52.710;6.438;2023-07-20T07:47:07;18.00;99.90
55004;DHT22;40900;52.710;6.438;2023-07-20T07:49:33;18.10;99.90
55004;DHT22;40900;52.710;6.438;2023-07-20T07:51:58;18.40;99.90
55004;DHT22;40900;52.710;6.438;2023-07-20T07:54:28;18.90;99.90
55004;DHT22;40900;52.710;6.438;2023-07-20T07:56:54;19.10;99.90
55004;DHT22;40900;52.710;6.438;2023-07-20T07:59:19;19.20;99.90
55004;DHT22;40900;52.710;6.438;2023-07-20T08:01:45;19.10;99.90
55004;DHT22;40900;52.710;6.438;2023-07-20T08:04:11;19.10;99.90
55004;DHT22;40900;52.710;6.438;2023-07-20T08:06:37;19.60;99.90
55004;DHT22;40900;52.710;6.438;2023-07-20T08:09:02;20.10;99.90
55004;DHT22;40900;52.710;6.438;2023-07-20T08:11:28;20.60;99.90
55004;DHT22;40900;52.710;6.438;2023-07-20T08:13:56;20.90;99.90
55004;DHT22;40900;52.710;6.438;2023-07-20T08:16:22;20.80;99.90
55004;DHT22;40900;52.710;6.438;2023-07-20T08:18:48;20.50;99.90
55004;DHT22;40900;52.710;6.438;2023-07-20T08:21:14;19.80;99.90
55004;DHT22;40900;52.710;6.438;2023-07-20T08:23:40;19.40;99.90
55004;DHT22;40900;52.710;6.438;2023-07-20T08:26:05;19.30;99.90
55004;DHT22;40900;52.710;6.438;2023-07-20T08:28:31;19.10;99.90
55004;DHT22;40900;52.710;6.438;2023-07-20T08:30:57;19.00;99.90
55004;DHT22;40900;52.710;6.438;2023-07-20T08:33:23;18.90;99.90
55004;DHT22;40900;52.710;6.438;2023-07-20T08:35:49;18.90;99.90
55004;DHT22;40900;52.710;6.438;2023-07-20T08:38:15;19.20;99.90
55004;DHT22;40900;52.710;6.438;2023-07-20T08:40:47;19.90;99.90
55004;DHT22;40900;52.710;6.438;2023-07-20T08:43:14;20.50;99.90
55004;DHT22;40900;52.710;6.438;2023-07-20T08:45:42;20.40;99.90
55004;DHT22;40900;52.710;6.438;2023-07-20T08:48:11;20.30;99.90
55004;DHT22;40900;52.710;6.438;2023-07-20T08:50:38;20.20;99.90
55004;DHT22;40900;52.710;6.438;2023-07-20T08:53:04;20.30;99.90
55004;DHT22;40900;52.710;6.438;2023-07-20T08:55:31;20.50;99.90
55004;DHT22;40900;52.710;6.438;2023-07-20T08:57:58;20.30;99.90
55004;DHT22;40900;52.710;6.438;2023-07-20T09:00:25;20.60;99.90
55004;DHT22;40900;52.710;6.438;2023-07-20T09:02:55;20.90;99.90
55004;DHT22;40900;52.710;6.438;2023-07-20T09:05:23;21.20;99.90
55004;DHT22;40900;52.710;6.438;2023-07-20T09:07:49;21.40;99.90
55004;DHT22;40900;52.710;6.438;2023-07-20T09:10:15;21.40;99.90
55004;DHT22;40900;52.710;6.438;2023-07-20T09:12:42;21.50;99.90
55004;DHT22;40900;52.710;6.438;2023-07-20T09:15:10;21.50;99.90
55004;DHT22;40900;52.710;6.438;2023-07-20T09:17:36;21.30;99.90
55004;DHT22;40900;52.710;6.438;2023-07-20T09:20:07;21.00;99.90
55004;DHT22;40900;52.710;6.438;2023-07-20T09:22:39;20.60;99.90
55004;DHT22;40900;52.710;6.438;2023-07-20T09:25:15;20.00;99.90
55004;DHT22;40900;52.710;6.438;2023-07-20T09:27:42;19.80;99.90
55004;DHT22;40900;52.710;6.438;2023-07-20T09:30:09;19.60;99.90
55004;DHT22;40900;52.710;6.438;2023-07-20T09:32:40;19.70;99.90
55004;DHT22;40900;52.710;6.438;2023-07-20T09:35:06;19.90;99.90
55004;DHT22;40900;52.710;6.438;2023-07-20T09:37:33;20.10;99.90
55004;DHT22;40900;52.710;6.438;2023-07-20T09:39:59;20.50;99.90
55004;DHT22;40900;52.710;6.438;2023-07-20T09:42:26;20.50;99.90
55004;DHT22;40900;52.710;6.438;2023-07-20T09:44:52;20.10;99.90
55004;DHT22;40900;52.710;6.438;2023-07-20T09:47:22;20.30;99.90
55004;DHT22;40900;52.710;6.438;2023-07-20T09:49:48;20.50;99.90
55004;DHT22;40900;52.710;6.438;2023-07-20T09:52:15;20.60;99.90
55004;DHT22;40900;52.710;6.438;2023-07-20T09:54:44;20.60;99.90
55004;DHT22;40900;52.710;6.438;2023-07-20T09:57:11;20.60;99.90
55004;DHT22;40900;52.710;6.438;2023-07-20T09:59:39;20.50;99.90
55004;DHT22;40900;52.710;6.438;2023-07-20T10:02:53;20.40;99.90
55004;DHT22;40900;52.710;6.438;2023-07-20T10:05:03;20.30;99.90
55004;DHT22;40900;52.710;6.438;2023-07-20T10:07:30;20.20;99.90
55004;DHT22;40900;52.710;6.438;2023-07-20T10:09:59;19.90;99.90
55004;DHT22;40900;52.710;6.438;2023-07-20T10:12:25;19.70;99.90
55004;DHT22;40900;52.710;6.438;2023-07-20T10:15:10;19.50;99.90
55004;DHT22;40900;52.710;6.438;2023-07-20T10:17:43;19.40;99.90
55004;DHT22;40900;52.710;6.438;2023-07-20T10:20:16;19.10;99.90
55004;DHT22;40900;52.710;6.438;2023-07-20T10:22:47;19.00;99.90
55004;DHT22;40900;52.710;6.438;2023-07-20T10:25:14;18.90;99.90
55004;DHT22;40900;52.710;6.438;2023-07-20T10:27:40;18.90;99.90
55004;DHT22;40900;52.710;6.438;2023-07-20T10:30:06;19.00;99.90
55004;DHT22;40900;52.710;6.438;2023-07-20T10:32:33;19.00;99.90
55004;DHT22;40900;52.710;6.438;2023-07-20T10:34:59;19.10;99.90
55004;DHT22;40900;52.710;6.438;2023-07-20T10:37:53;19.10;99.90
55004;DHT22;40900;52.710;6.438;2023-07-20T10:40:26;19.10;99.90
55004;DHT22;40900;52.710;6.438;2023-07-20T10:45:48;18.80;99.90
55004;DHT22;40900;52.710;6.438;2023-07-20T10:48:19;18.80;99.90
55004;DHT22;40900;52.710;6.438;2023-07-20T10:50:46;18.70;99.90
55004;DHT22;40900;52.710;6.438;2023-07-20T10:53:17;18.40;99.90
55004;DHT22;40900;52.710;6.438;2023-07-20T10:55:43;18.30;99.90
55004;DHT22;40900;52.710;6.438;2023-07-20T10:58:11;18.40;99.90
55004;DHT22;40900;52.710;6.438;2023-07-20T11:00:38;18.30;99.90
55004;DHT22;40900;52.710;6.438;2023-07-20T11:03:27;18.20;99.90
55004;DHT22;40900;52.710;6.438;2023-07-20T11:05:53;18.30;99.90
55004;DHT22;40900;52.710;6.438;2023-07-20T11:08:39;18.40;99.90
55004;DHT22;40900;52.710;6.438;2023-07-20T11:11:26;18.80;99.90
55004;DHT22;40900;52.710;6.438;2023-07-20T11:13:59;19.30;99.90
55004;DHT22;40900;52.710;6.438;2023-07-20T11:19:02;19.70;99.90
55004;DHT22;40900;52.710;6.438;2023-07-20T11:21:30;19.50;99.90
55004;DHT22;40900;52.710;6.438;2023-07-20T11:24:03;19.40;99.90
55004;DHT22;40900;52.710;6.438;2023-07-20T11:26:29;19.80;99.90
55004;DHT22;40900;52.710;6.438;2023-07-20T11:28:54;20.20;99.90
55004;DHT22;40900;52.710;6.438;2023-07-20T11:31:20;20.60;99.90
55004;DHT22;40900;52.710;6.438;2023-07-20T11:33:46;21.10;99.90
55004;DHT22;40900;52.710;6.438;2023-07-20T11:36:13;21.00;99.90
55004;DHT22;40900;52.710;6.438;2023-07-20T11:38:41;21.00;99.90
55004;DHT22;40900;52.710;6.438;2023-07-20T11:41:08;21.00;99.90
55004;DHT22;40900;52.710;6.438;2023-07-20T11:43:34;21.10;99.90
55004;DHT22;40900;52.710;6.438;2023-07-20T11:46:05;20.70;99.90
55004;DHT22;40900;52.710;6.438;2023-07-20T11:48:31;20.70;99.90
55004;DHT22;40900;52.710;6.438;2023-07-20T11:50:57;20.80;99.90
55004;DHT22;40900;52.710;6.438;2023-07-20T11:53:24;21.10;99.90
55004;DHT22;40900;52.710;6.438;2023-07-20T11:55:51;21.20;99.90
55004;DHT22;40900;52.710;6.438;2023-07-20T11:58:17;21.30;99.90
55004;DHT22;40900;52.710;6.438;2023-07-20T12:00:44;21.20;99.90
55004;DHT22;40900;52.710;6.438;2023-07-20T12:03:10;21.00;99.90
55004;DHT22;40900;52.710;6.438;2023-07-20T12:05:40;20.60;99.90
55004;DHT22;40900;52.710;6.438;2023-07-20T12:08:06;20.40;99.90
55004;DHT22;40900;52.710;6.438;2023-07-20T12:10:32;20.30;99.90
55004;DHT22;40900;52.710;6.438;2023-07-20T12:13:02;20.30;99.90
55004;DHT22;40900;52.710;6.438;2023-07-20T12:15:30;20.30;99.90
55004;DHT22;40900;52.710;6.438;2023-07-20T12:18:01;20.30;99.90
55004;DHT22;40900;52.710;6.438;2023-07-20T12:23:05;20.40;99.90
55004;DHT22;40900;52.710;6.438;2023-07-20T12:28:04;20.60;99.90
55004;DHT22;40900;52.710;6.438;2023-07-20T12:30:30;20.60;99.90
55004;DHT22;40900;52.710;6.438;2023-07-20T12:32:56;20.70;99.90
55004;DHT22;40900;52.710;6.438;2023-07-20T12:35:21;20.80;99.90
55004;DHT22;40900;52.710;6.438;2023-07-20T12:37:47;21.10;99.90
55004;DHT22;40900;52.710;6.438;2023-07-20T12:40:14;21.20;99.90
55004;DHT22;40900;52.710;6.438;2023-07-20T12:42:40;21.60;99.90
55004;DHT22;40900;52.710;6.438;2023-07-20T12:45:06;21.80;99.90
55004;DHT22;40900;52.710;6.438;2023-07-20T12:47:32;21.60;99.90
55004;DHT22;40900;52.710;6.438;2023-07-20T12:49:59;21.70;99.90
55004;DHT22;40900;52.710;6.438;2023-07-20T12:52:24;21.80;99.90
55004;DHT22;40900;52.710;6.438;2023-07-20T12:54:50;21.80;99.90
55004;DHT22;40900;52.710;6.438;2023-07-20T12:57:16;21.60;99.90
55004;DHT22;40900;52.710;6.438;2023-07-20T12:59:42;21.50;99.90
55004;DHT22;40900;52.710;6.438;2023-07-20T13:02:08;21.40;99.90
55004;DHT22;40900;52.710;6.438;2023-07-20T13:04:34;21.40;99.90
55004;DHT22;40900;52.710;6.438;2023-07-20T13:06:59;21.40;99.90
55004;DHT22;40900;52.710;6.438;2023-07-20T13:09:25;21.50;99.90
55004;DHT22;40900;52.710;6.438;2023-07-20T13:11:51;21.80;99.90
55004;DHT22;40900;52.710;6.438;2023-07-20T13:14:18;21.80;99.90
55004;DHT22;40900;52.710;6.438;2023-07-20T13:16:44;21.90;99.90
55004;DHT22;40900;52.710;6.438;2023-07-20T13:19:10;21.90;99.90
55004;DHT22;40900;52.710;6.438;2023-07-20T13:21:35;21.90;99.90
55004;DHT22;40900;52.710;6.438;2023-07-20T13:24:01;21.80;99.90
55004;DHT22;40900;52.710;6.438;2023-07-20T13:26:29;21.80;99.90
55004;DHT22;40900;52.710;6.438;2023-07-20T13:28:55;21.60;99.90
55004;DHT22;40900;52.710;6.438;2023-07-20T13:31:20;21.60;99.90
55004;DHT22;40900;52.710;6.438;2023-07-20T13:33:46;21.60;99.90
55004;DHT22;40900;52.710;6.438;2023-07-20T13:36:12;21.60;99.90
55004;DHT22;40900;52.710;6.438;2023-07-20T13:38:38;21.70;99.90
55004;DHT22;40900;52.710;6.438;2023-07-20T13:41:04;21.60;99.90
55004;DHT22;40900;52.710;6.438;2023-07-20T13:43:29;21.70;99.90
55004;DHT22;40900;52.710;6.438;2023-07-20T13:45:56;21.90;99.90
55004;DHT22;40900;52.710;6.438;2023-07-20T13:48:22;22.00;99.90
55004;DHT22;40900;52.710;6.438;2023-07-20T13:50:49;22.00;99.90
55004;DHT22;40900;52.710;6.438;2023-07-20T13:53:14;22.10;99.90
55004;DHT22;40900;52.710;6.438;2023-07-20T13:55:42;22.30;99.90
55004;DHT22;40900;52.710;6.438;2023-07-20T13:58:08;22.40;99.90
55004;DHT22;40900;52.710;6.438;2023-07-20T14:00:36;22.50;99.90
55004;DHT22;40900;52.710;6.438;2023-07-20T14:03:02;22.60;99.90
55004;DHT22;40900;52.710;6.438;2023-07-20T14:05:28;22.30;99.90
55004;DHT22;40900;52.710;6.438;2023-07-20T14:07:54;22.40;99.90
55004;DHT22;40900;52.710;6.438;2023-07-20T14:10:20;22.50;99.90
55004;DHT22;40900;52.710;6.438;2023-07-20T14:12:45;22.60;99.90
55004;DHT22;40900;52.710;6.438;2023-07-20T14:15:11;22.70;99.90
55004;DHT22;40900;52.710;6.438;2023-07-20T14:17:37;22.70;99.90
55004;DHT22;40900;52.710;6.438;2023-07-20T14:20:03;22.70;99.90
55004;DHT22;40900;52.710;6.438;2023-07-20T14:22:31;22.60;99.90
55004;DHT22;40900;52.710;6.438;2023-07-20T14:24:57;22.60;99.90
55004;DHT22;40900;52.710;6.438;2023-07-20T14:27:24;22.70;99.90
55004;DHT22;40900;52.710;6.438;2023-07-20T14:29:50;22.50;99.90
55004;DHT22;40900;52.710;6.438;2023-07-20T14:32:16;22.50;99.90
55004;DHT22;40900;52.710;6.438;2023-07-20T14:34:41;22.40;99.90
55004;DHT22;40900;52.710;6.438;2023-07-20T14:37:07;22.40;99.90
55004;DHT22;40900;52.710;6.438;2023-07-20T14:39:33;22.40;99.90
55004;DHT22;40900;52.710;6.438;2023-07-20T14:41:59;22.50;99.90
55004;DHT22;40900;52.710;6.438;2023-07-20T14:44:24;22.50;99.90
55004;DHT22;40900;52.710;6.438;2023-07-20T14:46:50;22.60;99.90
55004;DHT22;40900;52.710;6.438;2023-07-20T14:49:16;22.80;99.90
55004;DHT22;40900;52.710;6.438;2023-07-20T14:51:43;22.60;99.90
55004;DHT22;40900;52.710;6.438;2023-07-20T14:54:12;22.70;99.90
55004;DHT22;40900;52.710;6.438;2023-07-20T14:56:38;22.80;99.90
55004;DHT22;40900;52.710;6.438;2023-07-20T14:59:05;22.90;99.90
55004;DHT22;40900;52.710;6.438;2023-07-20T15:01:32;23.00;99.90
55004;DHT22;40900;52.710;6.438;2023-07-20T15:03:57;23.00;99.90
55004;DHT22;40900;52.710;6.438;2023-07-20T15:06:26;23.00;99.90
55004;DHT22;40900;52.710;6.438;2023-07-20T15:08:56;22.70;99.90
55004;DHT22;40900;52.710;6.438;2023-07-20T15:11:21;22.70;99.90
55004;DHT22;40900;52.710;6.438;2023-07-20T15:13:47;22.70;99.90
55004;DHT22;40900;52.710;6.438;2023-07-20T15:16:13;22.80;99.90
55004;DHT22;40900;52.710;6.438;2023-07-20T15:18:38;23.00;99.70
55004;DHT22;40900;52.710;6.438;2023-07-20T15:21:04;23.00;98.90
55004;DHT22;40900;52.710;6.438;2023-07-20T15:23:30;23.10;98.70
55004;DHT22;40900;52.710;6.438;2023-07-20T15:25:56;23.00;99.00
55004;DHT22;40900;52.710;6.438;2023-07-20T15:28:22;23.00;99.20
55004;DHT22;40900;52.710;6.438;2023-07-20T15:30:48;23.10;99.30
55004;DHT22;40900;52.710;6.438;2023-07-20T15:33:14;23.20;99.20
55004;DHT22;40900;52.710;6.438;2023-07-20T15:35:39;23.20;99.00
55004;DHT22;40900;52.710;6.438;2023-07-20T15:38:05;23.10;98.30
55004;DHT22;40900;52.710;6.438;2023-07-20T15:40:33;23.00;98.60
55004;DHT22;40900;52.710;6.438;2023-07-20T15:42:58;22.90;98.90
55004;DHT22;40900;52.710;6.438;2023-07-20T15:45:24;22.70;99.40
55004;DHT22;40900;52.710;6.438;2023-07-20T15:47:53;22.50;99.60
55004;DHT22;40900;52.710;6.438;2023-07-20T15:50:19;22.40;99.90
55004;DHT22;40900;52.710;6.438;2023-07-20T15:52:44;22.40;99.90